NCAR-RAP Real-Time Weather Data

Output produced by METARs form (26 May 2022  08:58 UTC)
found at http://weather.rap.ucar.edu/surface/
 
KEWR 260751Z 12003KT 10SM SCT200 BKN250 14/08 A3031 RMK AO2 SLP262 T01440083
KEWR 260651Z 00000KT 10SM BKN200 BKN250 15/07 A3032 RMK AO2 SLP267 T01500072
KEWR 260551Z 10006KT 10SM SCT190 BKN250 15/07 A3033 RMK AO2 SLP271 T01500072 10161 20150 58012
KEWR 260451Z 13003KT 10SM SCT190 BKN250 15/06 A3036 RMK AO2 SLP279 T01500061 402170133
KEWR 260351Z 16004KT 10SM BKN250 15/05 A3036 RMK AO2 SLP281 T01500050
KEWR 260251Z 17004KT 10SM FEW100 BKN250 16/04 A3037 RMK AO2 SLP282 T01560044 58001
KEWR 260151Z VRB03KT 10SM FEW100 BKN250 16/04 A3037 RMK AO2 SLP285 T01560039
KEWR 260051Z 16006KT 10SM FEW100 FEW180 BKN250 16/07 A3037 RMK AO2 SLP283 T01560067
KEWR 252351Z 16007KT 10SM FEW090 FEW180 BKN250 16/07 A3037 RMK AO2 SLP283 T01610067 10211 20161 53005
KEWR 252251Z 15008KT 10SM FEW100 BKN250 17/07 A3036 RMK AO2 SLP280 T01670067
KEWR 252151Z 16008KT 10SM FEW100 BKN250 18/07 A3035 RMK AO2 SLP277 T01780072
KEWR 252051Z 14009KT 10SM FEW050 FEW100 SCT250 19/08 A3035 RMK AO2 SLP278 T01890078 56008
KEWR 251951Z 16009KT 10SM FEW050 FEW090 BKN250 19/08 A3036 RMK AO2 SLP281 T01940078
KEWR 251851Z 15010KT 10SM FEW050 FEW090 BKN250 20/06 A3037 RMK AO2 SLP282 T02000061
KEWR 251751Z 16010KT 10SM FEW050 FEW090 BKN250 21/07 A3038 RMK AO2 SLP286 T02060072 10217 20167 56007
KEWR 251651Z 16007KT 10SM FEW050 FEW090 BKN250 21/07 A3038 RMK AO2 SLP286 T02060067
KEWR 251551Z VRB06KT 10SM FEW050 FEW080 BKN250 21/07 A3040 RMK AO2 SLP292 T02110072
KEWR 251451Z 07005KT 10SM FEW040 FEW080 BKN250 20/07 A3040 RMK AO2 SLP293 T02000067 50002
KEWR 251351Z VRB05KT 10SM FEW075 BKN250 18/07 A3040 RMK AO2 SLP294 T01830072
KEWR 251251Z 11004KT 10SM SCT075 BKN250 18/07 A3039 RMK AO2 SLP292 T01780067
KEWR 251151Z 03005KT 10SM SCT095 BKN250 17/07 A3039 RMK AO2 SLP291 T01670072 10167 20133 53018
KEWR 251051Z 07004KT 10SM FEW100 BKN250 16/08 A3037 RMK AO2 SLP283 T01560083
KEWR 250951Z 02003KT 10SM BKN250 14/08 A3034 RMK AO2 SLP275 T01390083
KEWR 250851Z 06003KT 10SM BKN250 15/08 A3034 RMK AO2 SLP273 T01500078 52005
KEWR 250751Z 03003KT 10SM BKN250 14/07 A3033 RMK AO2 SLP269 T01440072
KEWR 250651Z 07003KT 10SM SCT250 15/08 A3033 RMK AO2 SLP271 T01500078
KEWR 250551Z 09003KT 10SM SCT250 16/08 A3032 RMK AO2 SLP268 T01560083 10167 20156 58002
KEWR 250451Z 12004KT 10SM SCT250 16/08 A3033 RMK AO2 SLP269 T01560083 402060156
KEWR 250351Z 10004KT 10SM SCT250 16/08 A3033 RMK AO2 SLP270 T01610083
KEWR 250251Z 13004KT 10SM FEW090 BKN250 16/08 A3033 RMK AO2 SLP270 T01610083 50010
KEWR 250151Z 12006KT 10SM BKN090 OVC250 16/08 A3033 RMK AO2 SLP270 T01610083
KEWR 250051Z 14007KT 10SM FEW055 BKN090 BKN250 16/09 A3032 RMK AO2 SLP266 T01610089
KEWR 242351Z 15010G14KT 10SM FEW050 BKN095 BKN250 17/08 A3030 RMK AO2 SLP260 T01670083 10194 20167 53004
KEWR 242251Z 16006KT 10SM FEW050 BKN090 BKN250 18/07 A3029 RMK AO2 SLP257 T01780072
KEWR 242151Z 17007KT 10SM FEW040 BKN090 BKN250 18/06 A3028 RMK AO2 SLP254 T01830061
KEWR 242051Z VRB04KT 10SM FEW045 BKN090 BKN250 19/06 A3029 RMK AO2 SLP255 T01940056 58005
KEWR 241951Z 15007KT 10SM FEW045 BKN085 OVC250 18/07 A3029 RMK AO2 SLP258 T01830067
KEWR 241851Z 16007KT 10SM FEW042 BKN080 BKN250 18/09 A3030 RMK AO2 SLP260 T01830089
KEWR 241751Z 17010KT 10SM FEW040 BKN085 BKN250 19/08 A3030 RMK AO2 SLP260 T01940083 10206 20172 58002
KEWR 241651Z 14009KT 10SM FEW037 BKN090 BKN250 20/07 A3030 RMK AO2 SLP261 T02000067
KEWR 241551Z 05007KT 10SM FEW035 FEW055 BKN090 BKN250 19/09 A3031 RMK AO2 SLP264 T01890089
KEWR 241451Z 06008KT 10SM FEW035 SCT055 BKN085 18/09 A3031 RMK AO2 SLP261 T01830089 53008
KEWR 241351Z 06007KT 10SM FEW035 OVC049 18/09 A3029 RMK AO2 SLP257 T01830094
KEWR 241251Z 04009KT 10SM FEW030 BKN044 OVC090 18/09 A3029 RMK AO2 SLP258 T01780094
KEWR 241151Z 05006KT 10SM FEW030 BKN046 BKN090 OVC160 18/09 A3028 RMK AO2 SLP253 60000 T01830089 10194 20172 53017
KEWR 241051Z VRB04KT 10SM SCT026 BKN090 OVC160 18/08 A3026 RMK AO2 SLP248 T01780078
KEWR 240951Z 09006KT 10SM FEW026 BKN100 OVC160 17/09 A3025 RMK AO2 SLP241 T01720094